createdAt,value
2022-07-29T00:00:13.475Z,1.40
2022-07-29T00:02:45.622Z,1.42
2022-07-29T00:05:17.984Z,1.70
2022-07-29T00:07:49.967Z,1.50
2022-07-29T00:10:22.228Z,1.50
2022-07-29T00:12:54.253Z,1.90
2022-07-29T00:15:27.560Z,1.70
2022-07-29T00:17:59.584Z,1.50
2022-07-29T00:20:31.591Z,1.42
2022-07-29T00:23:03.615Z,1.67
2022-07-29T00:25:35.654Z,1.45
2022-07-29T00:28:07.636Z,1.23
2022-07-29T00:30:39.665Z,1.20
2022-07-29T00:33:11.641Z,1.77
2022-07-29T00:35:46.173Z,1.73
2022-07-29T00:38:21.194Z,1.60
2022-07-29T00:40:53.566Z,1.83
2022-07-29T00:43:25.694Z,1.38
2022-07-29T00:45:57.659Z,1.88
2022-07-29T00:48:29.683Z,1.70
2022-07-29T00:51:05.011Z,1.50
2022-07-29T00:53:37.883Z,1.58
2022-07-29T00:56:09.848Z,1.70
2022-07-29T00:58:41.985Z,2.00
2022-07-29T01:01:14.095Z,1.50
2022-07-29T01:03:46.133Z,2.42
2022-07-29T01:06:19.554Z,1.67
2022-07-29T01:08:52.437Z,1.40
2022-07-29T01:11:24.879Z,1.33
2022-07-29T01:13:57.519Z,1.60
2022-07-29T01:16:38.069Z,2.00
2022-07-29T01:19:58.438Z,1.67
2022-07-29T01:23:00.889Z,1.40
2022-07-29T01:26:12.078Z,1.80
2022-07-29T01:29:07.467Z,1.42
2022-07-29T01:32:22.558Z,1.65
2022-07-29T01:35:21.026Z,1.55
2022-07-29T01:38:08.285Z,1.60
2022-07-29T01:40:50.843Z,1.85
2022-07-29T01:43:31.611Z,1.52
2022-07-29T01:46:08.393Z,1.33
2022-07-29T01:48:47.422Z,1.30
2022-07-29T01:51:28.304Z,1.80
2022-07-29T01:54:11.817Z,1.52
2022-07-29T01:56:46.558Z,1.80
2022-07-29T01:59:20.166Z,1.50
2022-07-29T02:01:56.424Z,1.73
2022-07-29T02:04:30.688Z,1.50
2022-07-29T02:07:07.345Z,1.75
2022-07-29T02:09:40.734Z,1.60
2022-07-29T02:12:14.513Z,1.30
2022-07-29T02:14:51.877Z,1.98
2022-07-29T02:17:45.106Z,1.75
2022-07-29T02:20:18.001Z,1.40
2022-07-29T02:22:53.384Z,1.25
2022-07-29T02:25:37.309Z,1.45
2022-07-29T02:28:10.923Z,1.60
2022-07-29T02:30:45.145Z,1.58
2022-07-29T02:33:19.734Z,1.70
2022-07-29T02:35:52.221Z,1.92
2022-07-29T02:38:45.734Z,1.50
2022-07-29T02:41:56.877Z,1.15
2022-07-29T02:44:32.723Z,1.83
2022-07-29T02:47:41.348Z,1.45
2022-07-29T02:50:23.715Z,1.60
2022-07-29T02:53:02.451Z,1.42
2022-07-29T02:55:49.264Z,1.38
2022-07-29T02:59:09.273Z,1.80
2022-07-29T03:01:44.817Z,1.67
2022-07-29T03:04:20.630Z,1.35
2022-07-29T03:06:54.498Z,1.60
2022-07-29T03:09:29.183Z,1.48
2022-07-29T03:12:05.097Z,1.67
2022-07-29T03:14:38.164Z,1.27
2022-07-29T03:17:11.051Z,1.63
2022-07-29T03:19:43.548Z,1.60
2022-07-29T03:22:16.058Z,2.17
2022-07-29T03:24:51.205Z,2.28
2022-07-29T03:27:23.279Z,2.10
2022-07-29T03:29:55.242Z,1.50
2022-07-29T03:32:28.416Z,2.03
2022-07-29T03:35:00.728Z,2.10
2022-07-29T03:37:34.429Z,1.80
2022-07-29T03:40:10.211Z,1.90
2022-07-29T03:42:45.319Z,1.60
2022-07-29T03:45:20.344Z,1.40
2022-07-29T03:48:01.298Z,1.52
2022-07-29T03:50:35.182Z,1.70
2022-07-29T03:53:07.319Z,1.50
2022-07-29T03:55:46.261Z,2.00
2022-07-29T03:58:20.714Z,2.22
2022-07-29T04:00:53.355Z,2.03
2022-07-29T04:03:25.698Z,1.73
2022-07-29T04:06:07.160Z,1.60
2022-07-29T04:08:39.308Z,1.85
2022-07-29T04:11:11.466Z,1.50
2022-07-29T04:13:43.459Z,1.83
2022-07-29T04:16:15.551Z,1.95
2022-07-29T04:18:47.659Z,1.60
2022-07-29T04:21:19.719Z,1.50
2022-07-29T04:23:53.063Z,2.00
2022-07-29T04:26:26.046Z,1.90
2022-07-29T04:28:58.016Z,2.05
2022-07-29T04:31:30.115Z,1.60
2022-07-29T04:34:02.167Z,2.05
2022-07-29T04:36:34.378Z,1.90
2022-07-29T04:39:06.608Z,2.22
2022-07-29T04:41:38.658Z,2.00
2022-07-29T04:44:10.853Z,1.67
2022-07-29T04:46:43.041Z,1.50
2022-07-29T04:49:15.123Z,1.70
2022-07-29T04:51:47.172Z,1.70
2022-07-29T04:54:19.628Z,1.35
2022-07-29T04:56:51.812Z,2.22
2022-07-29T04:59:23.850Z,2.03
2022-07-29T05:01:55.917Z,2.03
2022-07-29T05:04:27.932Z,2.22
2022-07-29T05:06:59.910Z,2.10
2022-07-29T05:09:33.293Z,2.30
2022-07-29T05:12:05.700Z,1.73
2022-07-29T05:14:37.728Z,2.20
2022-07-29T05:17:09.694Z,2.10
2022-07-29T05:19:41.739Z,1.63
2022-07-29T05:22:13.757Z,2.90
2022-07-29T05:24:45.774Z,2.25
2022-07-29T05:27:17.742Z,2.65
2022-07-29T05:29:49.725Z,2.67
2022-07-29T05:32:21.751Z,2.20
2022-07-29T05:34:53.770Z,2.35
2022-07-29T05:37:25.740Z,2.13
2022-07-29T05:39:59.185Z,2.45
2022-07-29T05:42:31.470Z,2.38
2022-07-29T05:45:04.012Z,2.03
2022-07-29T05:47:36.270Z,2.45
2022-07-29T05:50:09.047Z,2.58
2022-07-29T05:52:41.105Z,2.30
2022-07-29T05:55:13.172Z,1.98
2022-07-29T05:57:46.534Z,2.50
2022-07-29T06:00:18.558Z,2.92
2022-07-29T06:02:50.686Z,1.98
2022-07-29T06:05:22.707Z,2.20
2022-07-29T06:07:54.798Z,1.85
2022-07-29T06:10:27.899Z,2.20
2022-07-29T06:13:00.025Z,2.40
2022-07-29T06:15:31.989Z,2.40
2022-07-29T06:18:04.309Z,2.35
2022-07-29T06:20:36.738Z,1.88
2022-07-29T06:23:09.048Z,2.17
2022-07-29T06:25:42.129Z,2.28
2022-07-29T06:28:14.433Z,2.70
2022-07-29T06:30:46.443Z,2.45
2022-07-29T06:33:20.087Z,2.28
2022-07-29T06:35:54.985Z,1.75
2022-07-29T06:38:31.006Z,2.13
2022-07-29T06:41:05.978Z,2.63
2022-07-29T06:43:52.020Z,2.47
2022-07-29T06:46:24.828Z,2.13
2022-07-29T06:48:56.876Z,2.58
2022-07-29T06:51:28.939Z,2.50
2022-07-29T06:54:03.301Z,2.42
2022-07-29T06:56:45.025Z,2.60
2022-07-29T06:59:17.081Z,2.03
2022-07-29T07:01:49.097Z,2.33
2022-07-29T07:04:21.392Z,2.40
2022-07-29T07:06:53.509Z,1.98
2022-07-29T07:09:25.480Z,2.10
2022-07-29T07:12:12.213Z,2.35
2022-07-29T07:14:45.682Z,2.22
2022-07-29T07:17:17.660Z,2.08
2022-07-29T07:19:49.619Z,2.47
2022-07-29T07:22:21.608Z,2.35
2022-07-29T07:24:53.604Z,2.05
2022-07-29T07:27:25.535Z,1.60
2022-07-29T07:29:57.825Z,1.90
2022-07-29T07:32:30.079Z,1.67
2022-07-29T07:35:02.338Z,2.13
2022-07-29T07:37:34.881Z,2.25
2022-07-29T07:40:08.337Z,2.15
2022-07-29T07:42:41.637Z,2.13
2022-07-29T07:45:16.098Z,2.30
2022-07-29T07:47:48.693Z,1.90
2022-07-29T07:50:20.688Z,2.30
2022-07-29T07:52:56.114Z,1.80
2022-07-29T07:55:28.244Z,2.13
2022-07-29T07:58:00.220Z,1.83
2022-07-29T08:00:33.409Z,2.08
2022-07-29T08:03:05.805Z,1.65
2022-07-29T08:05:49.376Z,2.70
2022-07-29T08:08:21.992Z,1.90
2022-07-29T08:10:54.100Z,2.05
2022-07-29T08:13:31.551Z,1.92
2022-07-29T08:16:12.508Z,1.90
2022-07-29T08:18:46.565Z,1.80
2022-07-29T08:21:18.923Z,2.05
2022-07-29T08:23:59.905Z,2.20
2022-07-29T08:26:32.849Z,1.85
2022-07-29T08:29:04.898Z,1.23
2022-07-29T08:31:41.022Z,2.10
2022-07-29T08:34:14.159Z,1.58
2022-07-29T08:36:46.217Z,1.48
2022-07-29T08:39:24.986Z,1.65
2022-07-29T08:41:57.773Z,1.70
2022-07-29T08:44:31.001Z,1.73
2022-07-29T08:47:03.522Z,1.50
2022-07-29T08:49:37.005Z,1.63
2022-07-29T08:52:12.505Z,1.50
2022-07-29T08:54:45.413Z,1.30
2022-07-29T08:57:18.535Z,1.83
2022-07-29T08:59:55.398Z,1.60
2022-07-29T09:02:34.727Z,1.35
2022-07-29T09:05:08.844Z,1.48
2022-07-29T09:07:44.322Z,1.70
2022-07-29T09:10:16.414Z,1.67
2022-07-29T09:12:49.933Z,1.50
2022-07-29T09:15:22.138Z,1.80
2022-07-29T09:17:54.283Z,1.40
2022-07-29T09:20:26.719Z,1.20
2022-07-29T09:23:09.027Z,1.63
2022-07-29T09:25:42.718Z,1.50
2022-07-29T09:28:19.906Z,1.58
2022-07-29T09:30:57.515Z,1.55
2022-07-29T09:33:40.375Z,1.52
2022-07-29T09:36:12.945Z,1.45
2022-07-29T09:39:00.185Z,1.30
2022-07-29T09:41:50.432Z,1.67
2022-07-29T09:44:23.840Z,1.13
2022-07-29T09:47:08.224Z,2.00
2022-07-29T09:49:59.407Z,1.48
2022-07-29T09:52:31.932Z,1.10
2022-07-29T09:55:13.785Z,1.33
2022-07-29T09:57:50.573Z,1.30
2022-07-29T10:00:24.193Z,1.58
2022-07-29T10:03:02.606Z,1.20
2022-07-29T10:05:36.180Z,1.38
2022-07-29T10:08:10.685Z,1.38
2022-07-29T10:10:44.005Z,2.03
2022-07-29T10:13:16.831Z,1.35
2022-07-29T10:15:51.929Z,1.50
2022-07-29T10:18:24.125Z,1.33
2022-07-29T10:20:57.029Z,1.38
2022-07-29T10:23:30.976Z,1.65
2022-07-29T10:26:20.637Z,1.98
2022-07-29T10:28:52.628Z,1.42
2022-07-29T10:31:40.839Z,1.25
2022-07-29T10:34:29.310Z,1.40
2022-07-29T10:37:45.784Z,1.58
2022-07-29T10:40:42.302Z,1.40
2022-07-29T10:43:25.626Z,1.13
2022-07-29T10:46:00.799Z,1.33
2022-07-29T10:48:32.855Z,1.48
2022-07-29T10:51:06.928Z,1.20
2022-07-29T10:56:44.937Z,2.17
2022-07-29T10:59:22.807Z,1.50
2022-07-29T11:02:10.869Z,0.88
2022-07-29T11:04:48.643Z,1.20
2022-07-29T11:07:23.278Z,1.20
2022-07-29T11:10:14.077Z,1.30
2022-07-29T11:12:48.492Z,1.00
2022-07-29T11:15:24.988Z,0.80
2022-07-29T11:18:01.299Z,0.90
2022-07-29T11:20:50.116Z,0.93
2022-07-29T11:23:33.858Z,1.10
2022-07-29T11:29:26.056Z,1.00
2022-07-29T11:32:18.145Z,1.20
2022-07-29T11:35:37.008Z,1.15
2022-07-29T11:38:31.777Z,1.02
2022-07-29T11:41:26.066Z,1.00
2022-07-29T11:44:01.574Z,1.02
2022-07-29T11:46:54.107Z,1.67
2022-07-29T11:49:32.582Z,1.23
2022-07-29T11:52:05.852Z,1.08
2022-07-29T11:54:57.971Z,1.20
2022-07-29T12:00:12.100Z,1.17
2022-07-29T12:02:48.483Z,0.90
2022-07-29T12:05:51.917Z,1.20
2022-07-29T12:08:26.935Z,0.80
2022-07-29T12:10:59.082Z,1.00
2022-07-29T12:13:40.089Z,1.50
2022-07-29T12:16:14.702Z,1.15
2022-07-29T12:19:00.624Z,1.20
2022-07-29T12:21:56.869Z,1.20
2022-07-29T12:24:45.434Z,1.40
2022-07-29T12:27:19.365Z,1.20
2022-07-29T12:30:07.434Z,1.05
2022-07-29T12:32:48.374Z,1.20
2022-07-29T12:35:22.304Z,0.93
2022-07-29T12:37:55.852Z,1.60
2022-07-29T12:40:27.995Z,1.20
2022-07-29T12:43:12.992Z,1.67
2022-07-29T12:45:49.627Z,1.65
2022-07-29T12:48:38.995Z,1.60
2022-07-29T12:51:15.403Z,2.30
2022-07-29T12:54:24.162Z,1.70
2022-07-29T12:59:33.457Z,1.38
2022-07-29T13:02:06.093Z,1.30
2022-07-29T13:04:38.137Z,1.25
2022-07-29T13:07:10.474Z,1.10
2022-07-29T13:09:45.457Z,1.40
2022-07-29T13:12:17.447Z,0.88
2022-07-29T13:14:51.233Z,1.30
2022-07-29T13:17:24.384Z,1.15
2022-07-29T13:20:13.632Z,1.23
2022-07-29T13:22:49.339Z,0.93
2022-07-29T13:25:33.220Z,1.10
2022-07-29T13:28:05.688Z,1.50
2022-07-29T13:30:38.779Z,1.35
2022-07-29T13:33:16.756Z,0.90
2022-07-29T13:35:48.979Z,1.58
2022-07-29T13:38:21.004Z,1.10
2022-07-29T13:40:53.129Z,1.42
2022-07-29T13:43:25.355Z,1.08
2022-07-29T13:45:57.501Z,0.82
2022-07-29T13:48:29.475Z,1.30
2022-07-29T13:51:01.953Z,0.85
2022-07-29T13:53:34.053Z,1.27
2022-07-29T13:56:07.052Z,1.30
2022-07-29T13:58:39.143Z,1.30
2022-07-29T14:01:12.239Z,1.45
2022-07-29T14:03:45.764Z,1.65
2022-07-29T14:06:18.284Z,1.40
2022-07-29T14:08:54.367Z,1.42
2022-07-29T14:11:26.435Z,1.10
2022-07-29T14:13:58.465Z,1.10
2022-07-29T14:16:30.524Z,1.10
2022-07-29T14:19:02.914Z,1.35
2022-07-29T14:21:35.718Z,0.93
2022-07-29T14:24:17.931Z,1.10
2022-07-29T14:26:54.984Z,0.93
2022-07-29T14:29:37.455Z,1.30
2022-07-29T14:32:12.553Z,0.95
2022-07-29T14:34:44.628Z,1.40
2022-07-29T14:37:16.813Z,1.77
2022-07-29T14:39:48.781Z,1.25
2022-07-29T14:42:20.848Z,1.23
2022-07-29T14:44:52.826Z,1.50
2022-07-29T14:47:25.153Z,1.17
2022-07-29T14:49:57.206Z,1.55
2022-07-29T14:52:29.213Z,1.50
2022-07-29T14:55:01.273Z,1.00
2022-07-29T14:57:33.306Z,1.52
2022-07-29T15:00:10.021Z,1.58
2022-07-29T15:03:00.860Z,1.02
2022-07-29T15:05:33.719Z,1.40
2022-07-29T15:08:05.806Z,1.23
2022-07-29T15:10:37.875Z,1.33
2022-07-29T15:13:09.859Z,1.42
2022-07-29T15:15:42.373Z,1.60
2022-07-29T15:18:14.413Z,1.58
2022-07-29T15:20:47.429Z,1.25
2022-07-29T15:23:19.500Z,1.45
2022-07-29T15:25:51.454Z,1.25
2022-07-29T15:28:23.512Z,1.40
2022-07-29T15:30:55.626Z,1.95
2022-07-29T15:33:28.948Z,1.38
2022-07-29T15:36:00.905Z,1.45
2022-07-29T15:38:32.860Z,1.40
2022-07-29T15:41:04.960Z,1.38
2022-07-29T15:43:36.947Z,1.30
2022-07-29T15:46:27.368Z,1.42
2022-07-29T15:48:59.608Z,1.77
2022-07-29T15:51:33.458Z,1.58
2022-07-29T15:54:06.304Z,1.50
2022-07-29T15:56:38.814Z,1.40
2022-07-29T15:59:10.785Z,1.13
2022-07-29T16:01:54.798Z,1.15
2022-07-29T16:04:27.758Z,1.50
2022-07-29T16:07:00.206Z,1.48
2022-07-29T16:09:32.590Z,1.55
2022-07-29T16:12:14.985Z,1.63
2022-07-29T16:14:49.622Z,1.60
2022-07-29T16:17:21.725Z,1.38
2022-07-29T16:19:54.445Z,1.77
2022-07-29T16:22:26.446Z,2.20
2022-07-29T16:24:58.448Z,1.50
2022-07-29T16:27:34.297Z,1.50
2022-07-29T16:30:10.495Z,1.48
2022-07-29T16:32:42.452Z,1.50
2022-07-29T16:35:14.568Z,1.30
2022-07-29T16:37:46.536Z,1.50
2022-07-29T16:40:18.576Z,2.00
2022-07-29T16:42:50.746Z,1.50
2022-07-29T16:45:22.825Z,1.55
2022-07-29T16:48:00.188Z,1.33
2022-07-29T16:50:33.404Z,1.50
2022-07-29T16:53:05.355Z,1.58
2022-07-29T16:55:37.536Z,1.40
2022-07-29T16:58:10.143Z,1.23
2022-07-29T17:00:42.219Z,1.40
2022-07-29T17:03:14.208Z,1.80
2022-07-29T17:05:52.714Z,2.38
2022-07-29T17:10:58.127Z,1.90
2022-07-29T17:13:30.076Z,1.55
2022-07-29T17:16:02.187Z,1.80
2022-07-29T17:18:34.167Z,1.48
2022-07-29T17:21:06.261Z,1.80
2022-07-29T17:23:38.207Z,1.88
2022-07-29T17:26:10.262Z,1.67
2022-07-29T17:28:42.669Z,1.75
2022-07-29T17:31:15.164Z,2.47
2022-07-29T17:33:47.233Z,2.38
2022-07-29T17:36:25.102Z,2.53
2022-07-29T17:39:08.593Z,1.73
2022-07-29T17:41:41.131Z,2.33
2022-07-29T17:44:13.630Z,2.17
2022-07-29T17:46:45.679Z,1.80
2022-07-29T17:49:17.748Z,2.00
2022-07-29T17:51:50.222Z,2.38
2022-07-29T17:54:22.277Z,2.35
2022-07-29T17:56:58.946Z,2.38
2022-07-29T17:59:31.159Z,2.38
2022-07-29T18:02:03.221Z,2.15
2022-07-29T18:04:35.234Z,2.55
2022-07-29T18:07:07.332Z,2.47
2022-07-29T18:09:42.688Z,2.35
2022-07-29T18:12:14.643Z,3.47
2022-07-29T18:14:46.730Z,2.45
2022-07-29T18:17:18.752Z,2.13
2022-07-29T18:19:51.527Z,2.58
2022-07-29T18:22:23.626Z,1.55
2022-07-29T18:24:55.605Z,1.90
2022-07-29T18:27:27.681Z,2.15
2022-07-29T18:29:59.684Z,2.15
2022-07-29T18:32:37.042Z,2.60
2022-07-29T18:35:09.604Z,2.30
2022-07-29T18:38:01.866Z,1.73
2022-07-29T18:40:33.621Z,3.03
2022-07-29T18:43:06.947Z,2.40
2022-07-29T18:45:39.564Z,2.40
2022-07-29T18:48:12.633Z,2.10
2022-07-29T18:50:45.327Z,2.47
2022-07-29T18:53:17.543Z,3.45
2022-07-29T18:55:49.502Z,2.90
2022-07-29T18:58:21.737Z,2.63
2022-07-29T19:00:53.816Z,2.53
2022-07-29T19:03:25.864Z,2.38
2022-07-29T19:05:57.853Z,2.70
2022-07-29T19:08:29.815Z,2.35
2022-07-29T19:11:01.763Z,2.13
2022-07-29T19:13:36.936Z,3.13
2022-07-29T19:16:12.074Z,2.38
2022-07-29T19:18:44.797Z,2.42
2022-07-29T19:21:17.387Z,2.55
2022-07-29T19:24:00.393Z,2.20
2022-07-29T19:26:46.504Z,3.00
2022-07-29T19:29:18.816Z,2.47
2022-07-29T19:31:51.049Z,2.33
2022-07-29T19:34:23.084Z,2.72
2022-07-29T19:36:55.066Z,2.42
2022-07-29T19:39:34.950Z,2.75
2022-07-29T19:42:08.499Z,2.03
2022-07-29T19:44:40.510Z,2.65
2022-07-29T19:47:12.477Z,2.00
2022-07-29T19:49:49.452Z,2.30
2022-07-29T19:52:21.520Z,2.30
2022-07-29T19:54:53.703Z,2.20
2022-07-29T19:57:25.677Z,2.15
2022-07-29T19:59:58.380Z,1.90
2022-07-29T20:02:30.410Z,2.30
2022-07-29T20:05:02.762Z,2.55
2022-07-29T20:07:34.728Z,2.42
2022-07-29T20:10:09.267Z,2.20
2022-07-29T20:12:42.740Z,2.60
2022-07-29T20:15:16.586Z,2.78
2022-07-29T20:17:48.696Z,2.33
2022-07-29T20:20:22.356Z,2.15
2022-07-29T20:22:54.781Z,2.58
2022-07-29T20:25:26.810Z,3.60
2022-07-29T20:27:58.765Z,2.88
2022-07-29T20:30:30.768Z,2.53
2022-07-29T20:33:02.986Z,3.22
2022-07-29T20:35:35.427Z,2.60
2022-07-29T20:38:07.413Z,2.40
2022-07-29T20:40:39.590Z,2.30
2022-07-29T20:43:11.757Z,3.08
2022-07-29T20:45:43.766Z,2.75
2022-07-29T20:48:15.719Z,2.35
2022-07-29T20:50:48.910Z,2.67
2022-07-29T20:53:21.067Z,3.10
2022-07-29T20:55:53.028Z,3.17
2022-07-29T20:58:25.010Z,2.67
2022-07-29T21:00:56.981Z,2.10
2022-07-29T21:03:28.995Z,2.53
2022-07-29T21:06:01.024Z,2.70
2022-07-29T21:08:33.094Z,2.78
2022-07-29T21:11:05.651Z,2.30
2022-07-29T21:13:41.094Z,2.90
2022-07-29T21:16:14.805Z,2.60
2022-07-29T21:18:47.797Z,2.40
2022-07-29T21:21:19.943Z,2.63
2022-07-29T21:23:52.682Z,2.20
2022-07-29T21:26:24.706Z,2.15
2022-07-29T21:28:56.659Z,2.70
2022-07-29T21:31:28.749Z,2.65
2022-07-29T21:34:00.686Z,2.40
2022-07-29T21:36:48.947Z,1.85
2022-07-29T21:39:21.061Z,2.70
2022-07-29T21:41:53.089Z,2.40
2022-07-29T21:44:25.059Z,2.50
2022-07-29T21:46:57.272Z,2.20
2022-07-29T21:49:29.536Z,2.63
2022-07-29T21:52:01.721Z,2.17
2022-07-29T21:54:33.765Z,2.85
2022-07-29T21:57:06.037Z,3.30
2022-07-29T21:59:38.258Z,3.05
2022-07-29T22:02:10.257Z,2.25
2022-07-29T22:04:42.247Z,2.15
2022-07-29T22:07:14.347Z,1.92
2022-07-29T22:09:46.329Z,2.42
2022-07-29T22:12:18.304Z,2.03
2022-07-29T22:14:50.260Z,1.92
2022-07-29T22:17:23.466Z,2.40
2022-07-29T22:19:55.580Z,2.03
2022-07-29T22:22:27.900Z,2.00
2022-07-29T22:24:59.849Z,2.50
2022-07-29T22:27:31.867Z,2.42
2022-07-29T22:30:06.980Z,2.05
2022-07-29T22:32:39.041Z,2.40
2022-07-29T22:35:11.661Z,2.50
2022-07-29T22:37:43.677Z,2.13
2022-07-29T22:40:15.687Z,2.40
2022-07-29T22:42:47.762Z,2.35
2022-07-29T22:45:19.900Z,2.20
2022-07-29T22:47:57.490Z,2.25
2022-07-29T22:50:31.480Z,2.35
2022-07-29T22:53:03.505Z,2.60
2022-07-29T22:55:35.449Z,2.75
2022-07-29T22:58:07.434Z,2.60
2022-07-29T23:00:39.451Z,2.90
2022-07-29T23:03:11.410Z,2.40
2022-07-29T23:05:43.375Z,2.63
2022-07-29T23:08:15.372Z,2.80
2022-07-29T23:10:47.502Z,2.70
2022-07-29T23:13:19.495Z,2.17
2022-07-29T23:15:51.455Z,3.42
2022-07-29T23:18:23.487Z,3.15
2022-07-29T23:20:55.546Z,2.58
2022-07-29T23:23:28.465Z,2.72
2022-07-29T23:26:04.613Z,2.75
2022-07-29T23:28:36.627Z,2.92
2022-07-29T23:31:08.656Z,2.78
2022-07-29T23:33:43.517Z,2.63
2022-07-29T23:36:15.553Z,2.75
2022-07-29T23:38:48.384Z,2.67
2022-07-29T23:41:21.531Z,2.47
2022-07-29T23:43:53.543Z,2.58
2022-07-29T23:46:25.543Z,2.58
2022-07-29T23:48:57.570Z,2.83
2022-07-29T23:51:30.402Z,3.22
2022-07-29T23:54:02.415Z,2.80
2022-07-29T23:56:34.423Z,2.72
2022-07-29T23:59:06.485Z,3.33
